createdAt,value
2022-08-26T00:18:34.263Z,25.8
2022-08-26T00:48:34.231Z,25.7
2022-08-26T01:18:34.306Z,25.7
2022-08-26T01:48:34.242Z,25.6
2022-08-26T02:18:34.266Z,25.6
2022-08-26T02:48:34.314Z,25.6
2022-08-26T03:18:34.309Z,25.5
2022-08-26T03:48:34.312Z,25.5
2022-08-26T04:18:34.307Z,25.5
2022-08-26T04:48:34.318Z,25.5
2022-08-26T05:18:34.270Z,25.5
2022-08-26T05:48:34.300Z,25.4
2022-08-26T06:18:34.300Z,25.4
2022-08-26T06:48:34.329Z,25.4
2022-08-26T07:18:34.236Z,25.4
2022-08-26T07:48:34.292Z,25.5
2022-08-26T09:18:34.277Z,25.5
2022-08-26T09:48:34.273Z,25.6
2022-08-26T10:18:34.269Z,25.6
2022-08-26T10:48:34.260Z,25.8
2022-08-26T11:18:34.292Z,26.0
2022-08-26T11:48:34.247Z,26.0
2022-08-26T12:18:34.255Z,26.0
2022-08-26T13:18:34.317Z,26.2
2022-08-26T13:48:34.223Z,26.2
2022-08-26T14:18:34.239Z,26.2
2022-08-26T14:48:34.488Z,26.2
2022-08-26T15:18:34.144Z,26.2
2022-08-26T15:48:34.202Z,26.3
2022-08-26T16:18:34.255Z,26.2
2022-08-26T17:48:34.185Z,26.1
2022-08-26T18:48:34.182Z,26.0
2022-08-26T19:18:34.174Z,26.0
2022-08-26T19:48:34.174Z,26.0
2022-08-26T20:18:34.093Z,26.0
2022-08-26T20:48:34.204Z,25.9
2022-08-26T22:18:34.148Z,25.8
2022-08-26T22:48:34.172Z,25.8
2022-08-26T23:18:34.073Z,25.8
2022-08-26T23:48:34.142Z,25.8
